createdAt,value
2022-10-02T00:01:13.319Z,13.50
2022-10-02T00:06:08.598Z,13.52
2022-10-02T00:11:02.054Z,13.62
2022-10-02T00:15:52.633Z,13.71
2022-10-02T00:20:48.862Z,13.70
2022-10-02T00:25:46.185Z,13.75
2022-10-02T00:30:49.190Z,13.79
2022-10-02T00:36:08.513Z,13.82
2022-10-02T00:41:42.707Z,13.85
2022-10-02T00:46:50.455Z,13.91
2022-10-02T00:51:56.848Z,13.93
2022-10-02T00:56:55.560Z,13.95
2022-10-02T01:01:52.493Z,13.94
2022-10-02T01:06:42.790Z,13.89
2022-10-02T01:11:33.499Z,13.89
2022-10-02T01:16:23.991Z,13.83
2022-10-02T01:21:24.044Z,13.79
2022-10-02T01:26:16.630Z,13.80
2022-10-02T01:31:11.191Z,13.81
2022-10-02T01:36:04.780Z,13.79
2022-10-02T01:40:54.388Z,13.83
2022-10-02T01:46:10.542Z,13.83
2022-10-02T01:51:15.957Z,13.79
2022-10-02T01:56:14.890Z,13.78
2022-10-02T02:01:20.090Z,13.77
2022-10-02T02:06:17.687Z,13.80
2022-10-02T02:11:13.263Z,13.79
2022-10-02T02:16:11.379Z,13.79
2022-10-02T02:21:06.190Z,13.80
2022-10-02T02:26:02.376Z,13.77
2022-10-02T02:30:55.635Z,13.77
2022-10-02T02:35:52.359Z,13.71
2022-10-02T02:40:46.572Z,13.72
2022-10-02T02:45:40.837Z,13.71
2022-10-02T02:50:35.608Z,13.70
2022-10-02T02:55:34.935Z,13.73
2022-10-02T03:00:25.746Z,13.66
2022-10-02T03:05:17.307Z,13.74
2022-10-02T03:10:17.015Z,13.77
2022-10-02T03:15:30.150Z,13.80
2022-10-02T03:20:27.982Z,13.80
2022-10-02T03:25:24.362Z,13.77
2022-10-02T03:30:15.739Z,13.76
2022-10-02T03:35:11.916Z,13.62
2022-10-02T03:40:04.702Z,13.65
2022-10-02T03:44:55.051Z,13.70
2022-10-02T03:49:44.951Z,13.72
2022-10-02T03:54:38.441Z,13.67
2022-10-02T03:59:49.828Z,13.67
2022-10-02T04:04:48.650Z,13.65
2022-10-02T04:09:46.991Z,13.62
2022-10-02T04:14:39.977Z,13.62
2022-10-02T04:19:36.728Z,13.60
2022-10-02T04:24:33.443Z,13.61
2022-10-02T04:29:29.813Z,13.54
2022-10-02T04:34:19.578Z,13.60
2022-10-02T04:39:24.535Z,13.54
2022-10-02T04:44:30.729Z,13.50
2022-10-02T04:49:47.244Z,13.48
2022-10-02T04:54:57.669Z,13.45
2022-10-02T05:00:09.098Z,13.44
2022-10-02T05:05:11.956Z,13.40
2022-10-02T05:10:08.193Z,13.35
2022-10-02T05:15:31.571Z,13.30
2022-10-02T05:20:38.888Z,13.29
2022-10-02T05:26:01.980Z,13.33
2022-10-02T05:31:04.500Z,13.29
2022-10-02T05:36:23.945Z,13.24
2022-10-02T05:41:25.140Z,13.21
2022-10-02T05:46:24.074Z,13.16
2022-10-02T05:51:19.155Z,13.10
2022-10-02T05:56:16.454Z,13.06
2022-10-02T06:01:12.706Z,13.15
2022-10-02T06:06:13.379Z,13.16
2022-10-02T06:11:10.753Z,13.13
2022-10-02T06:16:12.466Z,13.11
2022-10-02T06:21:11.692Z,13.19
2022-10-02T06:26:06.155Z,13.16
2022-10-02T06:31:01.725Z,13.22
2022-10-02T06:36:10.502Z,13.26
2022-10-02T06:41:16.664Z,13.24
2022-10-02T06:46:17.902Z,13.30
2022-10-02T06:51:18.558Z,13.31
2022-10-02T06:56:30.704Z,13.31
2022-10-02T07:01:33.473Z,13.33
2022-10-02T07:06:33.542Z,13.43
2022-10-02T07:11:35.347Z,13.48
2022-10-02T07:16:45.380Z,13.53
2022-10-02T07:21:47.093Z,13.59
2022-10-02T07:26:58.350Z,13.62
2022-10-02T07:31:59.504Z,13.67
2022-10-02T07:36:59.673Z,13.61
2022-10-02T07:42:16.937Z,13.76
2022-10-02T07:47:20.909Z,13.80
2022-10-02T07:52:25.788Z,13.89
2022-10-02T07:57:29.049Z,13.91
2022-10-02T08:02:25.860Z,14.00
2022-10-02T08:07:15.628Z,14.05
2022-10-02T08:12:18.059Z,14.11
2022-10-02T08:17:21.556Z,14.19
2022-10-02T08:22:21.135Z,14.29
2022-10-02T08:27:15.809Z,14.33
2022-10-02T08:32:05.593Z,14.45
2022-10-02T08:37:13.299Z,14.45
2022-10-02T08:42:45.710Z,14.54
2022-10-02T08:48:00.676Z,14.57
2022-10-02T08:53:13.186Z,14.63
2022-10-02T08:58:27.362Z,14.82
2022-10-02T09:03:54.303Z,14.90
2022-10-02T09:09:36.183Z,15.05
2022-10-02T09:14:48.376Z,15.17
2022-10-02T09:19:52.645Z,15.26
2022-10-02T09:25:16.670Z,15.34
2022-10-02T09:30:23.584Z,15.41
2022-10-02T09:35:34.703Z,15.46
2022-10-02T09:41:02.333Z,15.72
2022-10-02T09:46:10.516Z,15.96
2022-10-02T09:51:50.845Z,15.96
2022-10-02T09:57:17.897Z,15.91
2022-10-02T10:02:37.511Z,15.87
2022-10-02T10:08:00.976Z,15.87
2022-10-02T10:13:25.085Z,15.73
2022-10-02T10:18:45.292Z,15.67
2022-10-02T10:24:09.762Z,15.76
2022-10-02T10:29:34.474Z,15.75
2022-10-02T10:34:52.386Z,15.77
2022-10-02T10:40:18.439Z,15.78
2022-10-02T10:45:34.984Z,15.75
2022-10-02T10:50:49.245Z,15.82
2022-10-02T10:56:07.458Z,15.89
2022-10-02T11:01:15.210Z,15.92
2022-10-02T11:06:45.327Z,15.92
2022-10-02T11:11:51.401Z,15.95
2022-10-02T11:17:22.295Z,16.04
2022-10-02T11:22:41.044Z,16.20
2022-10-02T11:27:57.678Z,16.35
2022-10-02T11:33:06.193Z,16.49
2022-10-02T11:38:41.836Z,16.62
2022-10-02T11:44:04.875Z,16.72
2022-10-02T11:49:10.339Z,16.74
2022-10-02T11:54:18.531Z,16.68
2022-10-02T11:59:30.842Z,16.54
2022-10-02T12:04:32.374Z,16.59
2022-10-02T12:09:34.361Z,16.83
2022-10-02T12:14:46.200Z,17.16
2022-10-02T12:20:03.535Z,17.32
2022-10-02T12:25:19.042Z,17.35
2022-10-02T12:30:13.297Z,17.42
2022-10-02T12:35:13.030Z,17.51
2022-10-02T12:40:20.097Z,17.64
2022-10-02T12:45:45.700Z,17.74
2022-10-02T12:50:54.536Z,17.92
2022-10-02T12:56:33.880Z,17.99
2022-10-02T13:01:52.393Z,18.07
2022-10-02T13:07:12.226Z,18.17
2022-10-02T13:12:15.649Z,18.31
2022-10-02T13:17:19.935Z,18.33
2022-10-02T13:22:16.307Z,18.47
2022-10-02T13:27:21.359Z,18.69
2022-10-02T13:32:41.579Z,18.57
2022-10-02T13:37:42.381Z,18.56
2022-10-02T13:43:03.566Z,18.69
2022-10-02T13:48:05.756Z,18.88
2022-10-02T13:53:30.706Z,18.87
2022-10-02T13:58:46.397Z,18.62
2022-10-02T14:03:48.881Z,18.47
2022-10-02T14:09:00.020Z,18.40
2022-10-02T14:14:04.587Z,18.25
2022-10-02T14:19:23.656Z,18.17
2022-10-02T14:25:04.227Z,18.33
2022-10-02T14:30:02.276Z,18.55
2022-10-02T14:35:21.231Z,18.61
2022-10-02T14:40:16.549Z,18.65
2022-10-02T14:45:32.669Z,18.71
2022-10-02T14:50:44.828Z,18.74
2022-10-02T14:55:55.767Z,18.81
2022-10-02T15:01:04.799Z,18.87
2022-10-02T15:06:07.703Z,18.82
2022-10-02T15:10:57.390Z,18.69
2022-10-02T15:16:15.235Z,18.27
2022-10-02T15:21:19.422Z,18.02
2022-10-02T15:26:41.740Z,17.82
2022-10-02T15:31:44.349Z,17.69
2022-10-02T15:36:56.326Z,17.64
2022-10-02T15:41:51.540Z,17.62
2022-10-02T15:46:59.597Z,17.44
2022-10-02T15:52:05.216Z,17.35
2022-10-02T15:57:09.033Z,17.24
2022-10-02T16:02:17.206Z,17.26
2022-10-02T16:07:35.601Z,17.19
2022-10-02T16:12:50.573Z,17.13
2022-10-02T16:18:11.185Z,16.98
2022-10-02T16:23:16.723Z,16.86
2022-10-02T16:28:18.726Z,16.81
2022-10-02T16:33:27.661Z,16.68
2022-10-02T16:38:22.516Z,16.63
2022-10-02T16:43:37.551Z,16.53
2022-10-02T16:48:40.666Z,16.45
2022-10-02T16:53:35.741Z,16.31
2022-10-02T16:58:31.165Z,16.25
2022-10-02T17:03:33.656Z,16.09
2022-10-02T17:08:31.097Z,16.06
2022-10-02T17:13:35.823Z,15.93
2022-10-02T17:18:41.210Z,15.85
2022-10-02T17:23:40.603Z,15.77
2022-10-02T17:28:36.927Z,15.68
2022-10-02T17:33:32.399Z,15.66
2022-10-02T17:38:48.125Z,15.57
2022-10-02T17:43:44.140Z,15.54
2022-10-02T17:48:52.007Z,15.46
2022-10-02T17:54:08.576Z,15.45
2022-10-02T17:59:16.518Z,15.38
2022-10-02T18:04:19.833Z,15.34
2022-10-02T18:09:38.023Z,15.25
2022-10-02T18:14:55.284Z,15.18
2022-10-02T18:20:20.628Z,15.16
2022-10-02T18:25:45.610Z,15.09
2022-10-02T18:30:45.427Z,14.97
2022-10-02T18:36:00.289Z,14.92
2022-10-02T18:41:08.636Z,14.87
2022-10-02T18:46:08.816Z,14.92
2022-10-02T18:51:18.794Z,14.93
2022-10-02T18:56:14.801Z,14.89
2022-10-02T19:01:27.486Z,14.81
2022-10-02T19:06:29.278Z,14.76
2022-10-02T19:11:21.206Z,14.67
2022-10-02T19:16:23.645Z,14.64
2022-10-02T19:21:22.062Z,14.58
2022-10-02T19:26:20.531Z,14.58
2022-10-02T19:31:13.524Z,14.54
2022-10-02T19:36:08.016Z,14.49
2022-10-02T19:41:03.748Z,14.32
2022-10-02T19:45:57.478Z,14.31
2022-10-02T19:50:51.419Z,14.25
2022-10-02T19:55:45.410Z,14.24
2022-10-02T20:00:40.402Z,14.18
2022-10-02T20:05:34.684Z,14.16
2022-10-02T20:10:32.384Z,14.13
2022-10-02T20:15:39.700Z,14.04
2022-10-02T20:20:32.256Z,13.97
2022-10-02T20:25:29.071Z,13.94
2022-10-02T20:30:22.218Z,13.88
2022-10-02T20:35:21.261Z,13.84
2022-10-02T20:40:18.658Z,13.79
2022-10-02T20:45:14.532Z,13.74
2022-10-02T20:50:29.065Z,13.55
2022-10-02T20:55:30.518Z,13.58
2022-10-02T21:00:22.856Z,13.50
2022-10-02T21:05:42.543Z,13.45
2022-10-02T21:11:13.446Z,13.37
2022-10-02T21:16:47.151Z,13.32
2022-10-02T21:22:14.548Z,13.30
2022-10-02T21:27:37.508Z,13.19
2022-10-02T21:32:42.927Z,13.11
2022-10-02T21:37:47.770Z,13.08
2022-10-02T21:43:17.911Z,13.01
2022-10-02T21:48:41.431Z,12.95
2022-10-02T21:54:10.631Z,12.88
2022-10-02T21:59:32.878Z,12.85
2022-10-02T22:04:43.296Z,12.79
2022-10-02T22:09:47.751Z,12.76
2022-10-02T22:14:43.016Z,12.67
2022-10-02T22:19:53.961Z,12.60
2022-10-02T22:25:06.407Z,12.56
2022-10-02T22:29:58.109Z,12.56
2022-10-02T22:35:01.803Z,12.52
2022-10-02T22:39:57.916Z,12.48
2022-10-02T22:44:54.135Z,12.43
2022-10-02T22:49:49.496Z,12.37
2022-10-02T22:54:48.983Z,12.32
2022-10-02T22:59:45.750Z,12.13
2022-10-02T23:04:41.728Z,12.21
2022-10-02T23:09:42.274Z,12.19
2022-10-02T23:14:44.036Z,12.00
2022-10-02T23:19:46.623Z,11.99
2022-10-02T23:24:41.633Z,11.97
2022-10-02T23:29:45.938Z,11.94
2022-10-02T23:34:42.300Z,11.93
2022-10-02T23:39:40.229Z,11.93
2022-10-02T23:44:43.823Z,11.89
2022-10-02T23:49:37.863Z,11.74
2022-10-02T23:54:40.174Z,11.68
2022-10-02T23:59:55.206Z,11.69
